Terminal Aerodrome Forecast
Issued by NWS Mt. Holly, NJ

Home | Current Version | Previous Version | Text Only | Print | Product List | Glossary On
Versions: 1 2 3 4 5 6 7 8 9 10 11 12 13 14 15 16 17 18 19 20 21 22 23 24 25 26 27 28 29 30 31 32
252
FTUS41 KPHI 291413 AAA
TAFPHL
TAF AMD
KPHL 291413Z 2914/3018 24010KT P6SM FEW035 BKN150
     FM291600 26012G19KT P6SM SCT050 BKN150
     FM292200 28009KT P6SM -SHRA VCTS SCT050CB BKN150
     FM300300 01006KT P6SM BKN150
     FM300600 03005KT 5SM BR OVC015
     FM301100 07008KT P6SM OVC015=

USA.gov is the U.S. government's official web portal to all federal, state and local government web resources and services.